createdAt,value
2024-05-09T00:00:36.292Z,102959.09
2024-05-09T00:03:10.342Z,102958.25
2024-05-09T00:05:38.742Z,102951.41
2024-05-09T00:08:06.713Z,102951.47
2024-05-09T00:10:37.348Z,102948.09
2024-05-09T00:13:10.252Z,102949.91
2024-05-09T00:15:37.631Z,102949.06
2024-05-09T00:18:05.954Z,102948.28
2024-05-09T00:20:38.398Z,102949.25
2024-05-09T00:23:12.089Z,102939.81
2024-05-09T00:25:39.687Z,102939.81
2024-05-09T00:28:06.679Z,102935.50
2024-05-09T00:30:36.018Z,102934.69
2024-05-09T00:33:05.773Z,102937.38
2024-05-09T00:35:33.569Z,102935.75
2024-05-09T00:38:01.308Z,102928.00
2024-05-09T00:40:39.161Z,102922.84
2024-05-09T00:43:08.429Z,102927.19
2024-05-09T00:45:35.821Z,102928.16
2024-05-09T00:48:06.728Z,102928.22
2024-05-09T00:50:37.453Z,102917.00
2024-05-09T00:53:10.203Z,102912.75
2024-05-09T00:55:37.780Z,102918.88
2024-05-09T00:58:05.374Z,102923.25
2024-05-09T01:00:38.750Z,102930.28
2024-05-09T01:03:09.078Z,102925.97
2024-05-09T01:05:39.183Z,102918.22
2024-05-09T01:08:06.768Z,102920.94
2024-05-09T01:10:35.257Z,102924.41
2024-05-09T01:13:07.158Z,102921.00
2024-05-09T01:15:34.615Z,102919.31
2024-05-09T01:18:05.072Z,102923.66
2024-05-09T01:20:40.767Z,102922.88
2024-05-09T01:23:10.557Z,102923.84
2024-05-09T01:25:37.675Z,102924.75
2024-05-09T01:28:04.801Z,102917.84
2024-05-09T01:30:35.156Z,102918.75
2024-05-09T01:33:08.890Z,102908.38
2024-05-09T01:35:37.533Z,102908.47
2024-05-09T01:38:04.710Z,102907.69
2024-05-09T01:40:38.434Z,102903.41
2024-05-09T01:43:08.894Z,102916.47
2024-05-09T01:45:36.508Z,102913.97
2024-05-09T01:48:03.731Z,102912.25
2024-05-09T01:50:38.162Z,102916.63
2024-05-09T01:53:09.550Z,102914.00
2024-05-09T01:55:36.354Z,102912.31
2024-05-09T01:58:03.144Z,102906.31
2024-05-09T02:00:38.400Z,102910.69
2024-05-09T02:03:10.756Z,102915.06
2024-05-09T02:05:39.198Z,102921.19
2024-05-09T02:08:06.947Z,102908.22
2024-05-09T02:10:33.862Z,102916.03
2024-05-09T02:13:00.891Z,102907.41
2024-05-09T02:15:27.848Z,102915.22
2024-05-09T02:17:54.762Z,102907.50
2024-05-09T02:20:30.683Z,102916.25
2024-05-09T02:23:04.476Z,102916.34
2024-05-09T02:25:32.203Z,102905.06
2024-05-09T02:27:59.166Z,102914.66
2024-05-09T02:30:35.733Z,102912.94
2024-05-09T02:33:07.206Z,102912.16
2024-05-09T02:35:34.220Z,102917.38
2024-05-09T02:38:01.122Z,102916.53
2024-05-09T02:40:36.063Z,102910.53
2024-05-09T02:43:05.708Z,102916.63
2024-05-09T02:45:32.616Z,102904.53
2024-05-09T02:47:59.547Z,102903.72
2024-05-09T02:50:34.151Z,102898.56
2024-05-09T02:53:05.446Z,102899.47
2024-05-09T02:55:32.553Z,102899.47
2024-05-09T02:57:59.334Z,102895.19
2024-05-09T03:00:34.688Z,102899.59
2024-05-09T03:03:08.319Z,102903.94
2024-05-09T03:05:36.222Z,102902.25
2024-05-09T03:08:03.308Z,102897.97
2024-05-09T03:10:35.571Z,102898.00
2024-05-09T03:13:07.894Z,102893.72
2024-05-09T03:15:34.619Z,102891.16
2024-05-09T03:18:01.598Z,102891.19
2024-05-09T03:20:33.956Z,102892.97
2024-05-09T03:23:02.688Z,102893.00
2024-05-09T03:25:30.266Z,102893.88
2024-05-09T03:27:56.923Z,102893.94
2024-05-09T03:30:38.442Z,102893.09
2024-05-09T03:33:18.013Z,102888.81
2024-05-09T03:35:46.917Z,102884.50
2024-05-09T03:38:14.184Z,102886.25
2024-05-09T03:40:48.892Z,102892.38
2024-05-09T03:43:16.989Z,102888.94
2024-05-09T03:45:44.267Z,102888.06
2024-05-09T03:48:11.239Z,102892.41
2024-05-09T03:50:38.293Z,102888.16
2024-05-09T03:53:05.373Z,102888.19
2024-05-09T03:55:33.573Z,102891.63
2024-05-09T03:58:01.262Z,102884.78
2024-05-09T04:00:37.090Z,102885.63
2024-05-09T04:03:08.925Z,102883.97
2024-05-09T04:05:41.375Z,102884.84
2024-05-09T04:08:09.918Z,102892.66
2024-05-09T04:10:51.143Z,102896.09
2024-05-09T04:13:17.756Z,102892.69
2024-05-09T04:15:46.377Z,102898.75
2024-05-09T04:18:13.986Z,102897.88
2024-05-09T04:20:54.257Z,102890.09
2024-05-09T04:23:21.059Z,102893.53
2024-05-09T04:25:51.627Z,102895.28
2024-05-09T04:28:20.345Z,102900.44
2024-05-09T04:30:49.727Z,102898.69
2024-05-09T04:33:16.587Z,102892.66
2024-05-09T04:35:47.071Z,102897.81
2024-05-09T04:38:15.207Z,102903.84
2024-05-09T04:40:44.429Z,102894.31
2024-05-09T04:43:15.750Z,102900.31
2024-05-09T04:45:45.849Z,102902.84
2024-05-09T04:48:13.165Z,102902.84
2024-05-09T04:50:40.603Z,102908.81
2024-05-09T04:53:10.042Z,102909.63
2024-05-09T04:55:40.433Z,102909.59
2024-05-09T04:58:11.582Z,102916.47
2024-05-09T05:00:41.332Z,102911.16
2024-05-09T05:03:14.242Z,102911.06
2024-05-09T05:05:45.311Z,102911.88
2024-05-09T05:08:17.305Z,102916.13
2024-05-09T05:10:47.432Z,102916.91
2024-05-09T05:13:24.990Z,102918.56
2024-05-09T05:16:00.508Z,102914.97
2024-05-09T05:18:28.281Z,102926.13
2024-05-09T05:20:56.498Z,102927.78
2024-05-09T05:23:24.425Z,102925.06
2024-05-09T05:25:55.427Z,102929.28
2024-05-09T05:28:22.534Z,102929.13
2024-05-09T05:30:51.415Z,102921.06
2024-05-09T05:33:19.239Z,102928.56
2024-05-09T05:35:48.950Z,102922.09
2024-05-09T05:38:15.812Z,102923.13
2024-05-09T05:40:47.397Z,102926.44
2024-05-09T05:43:18.346Z,102918.63
2024-05-09T05:45:45.740Z,102921.75
2024-05-09T05:48:14.670Z,102913.13
2024-05-09T05:50:44.447Z,102916.78
2024-05-09T05:53:11.562Z,102914.31
2024-05-09T05:55:43.779Z,102921.59
2024-05-09T05:58:11.346Z,102911.75
2024-05-09T06:00:40.757Z,102911.31
2024-05-09T06:03:10.390Z,102910.97
2024-05-09T06:05:41.050Z,102912.50
2024-05-09T06:08:08.984Z,102914.47
2024-05-09T06:10:43.564Z,102917.22
2024-05-09T06:13:11.474Z,102913.13
2024-05-09T06:15:39.981Z,102912.47
2024-05-09T06:18:08.966Z,102904.31
2024-05-09T06:20:40.381Z,102912.09
2024-05-09T06:23:07.824Z,102907.25
2024-05-09T06:25:44.864Z,102910.63
2024-05-09T06:28:12.021Z,102900.56
2024-05-09T06:30:44.005Z,102899.81
2024-05-09T06:33:13.430Z,102904.63
2024-05-09T06:35:44.911Z,102900.72
2024-05-09T06:38:12.160Z,102898.59
2024-05-09T06:40:42.202Z,102901.72
2024-05-09T06:43:18.946Z,102894.47
2024-05-09T06:45:58.570Z,102899.22
2024-05-09T06:48:25.701Z,102899.94
2024-05-09T06:50:55.319Z,102896.44
2024-05-09T06:53:24.699Z,102902.81
2024-05-09T06:55:55.268Z,102896.09
2024-05-09T06:58:22.988Z,102907.97
2024-05-09T07:00:50.121Z,102899.31
2024-05-09T07:03:18.444Z,102898.25
2024-05-09T07:05:49.751Z,102906.91
2024-05-09T07:08:17.477Z,102894.84
2024-05-09T07:10:46.579Z,102899.66
2024-05-09T07:13:15.282Z,102902.56
2024-05-09T07:15:45.264Z,102898.47
2024-05-09T07:18:16.707Z,102901.59
2024-05-09T07:20:45.596Z,102904.09
2024-05-09T07:23:13.028Z,102897.16
2024-05-09T07:25:42.102Z,102901.47
2024-05-09T07:28:15.415Z,102899.75
2024-05-09T07:30:45.080Z,102889.41
2024-05-09T07:33:23.252Z,102898.47
2024-05-09T07:35:52.838Z,102890.16
2024-05-09T07:38:22.496Z,102882.88
2024-05-09T07:40:51.563Z,102886.28
2024-05-09T07:43:18.318Z,102887.06
2024-05-09T07:45:53.182Z,102876.94
2024-05-09T07:52:39.001Z,102874.66
2024-05-09T07:53:50.618Z,102875.09
2024-05-09T07:56:22.380Z,102873.78
2024-05-09T07:58:52.846Z,102877.13
2024-05-09T08:01:20.526Z,102872.53
2024-05-09T08:03:48.160Z,102877.41
2024-05-09T08:06:15.025Z,102873.56
2024-05-09T08:08:41.787Z,102879.22
2024-05-09T08:11:08.616Z,102871.31
2024-05-09T08:13:35.286Z,102879.59
2024-05-09T08:16:03.121Z,102867.44
2024-05-09T08:18:30.047Z,102869.72
2024-05-09T08:21:00.842Z,102861.28
2024-05-09T08:23:28.808Z,102866.31
2024-05-09T08:25:57.231Z,102868.03
2024-05-09T08:28:24.906Z,102870.53
2024-05-09T08:30:53.366Z,102866.19
2024-05-09T08:33:20.250Z,102865.94
2024-05-09T08:35:48.676Z,102863.59
2024-05-09T08:38:15.357Z,102854.00
2024-05-09T08:40:43.034Z,102855.13
2024-05-09T08:43:11.960Z,102863.44
2024-05-09T08:45:45.502Z,102857.47
2024-05-09T08:48:14.979Z,102871.25
2024-05-09T08:50:52.158Z,102857.16
2024-05-09T08:53:19.794Z,102857.31
2024-05-09T08:55:48.917Z,102856.34
2024-05-09T08:58:19.251Z,102856.63
2024-05-09T09:00:51.658Z,102868.03
2024-05-09T09:03:26.755Z,102860.81
2024-05-09T09:06:02.297Z,102862.63
2024-05-09T09:08:30.479Z,102863.66
2024-05-09T09:11:03.074Z,102862.13
2024-05-09T09:13:31.011Z,102863.66
2024-05-09T09:16:00.815Z,102862.63
2024-05-09T09:18:30.331Z,102863.47
2024-05-09T09:20:59.833Z,102856.16
2024-05-09T09:23:30.618Z,102861.94
2024-05-09T09:26:02.116Z,102862.22
2024-05-09T09:28:29.592Z,102852.00
2024-05-09T09:31:05.466Z,102853.53
2024-05-09T09:33:32.663Z,102847.44
2024-05-09T09:36:02.843Z,102853.38
2024-05-09T09:38:31.679Z,102854.56
2024-05-09T09:41:01.070Z,102859.28
2024-05-09T09:43:28.335Z,102849.69
2024-05-09T09:46:02.474Z,102839.78
2024-05-09T09:48:31.442Z,102851.78
2024-05-09T09:50:58.414Z,102838.44
2024-05-09T09:53:26.126Z,102837.28
2024-05-09T09:56:04.045Z,102838.69
2024-05-09T09:58:32.913Z,102831.63
2024-05-09T10:01:00.860Z,102834.25
2024-05-09T10:03:29.805Z,102836.59
2024-05-09T10:05:59.287Z,102826.06
2024-05-09T10:08:26.768Z,102825.56
2024-05-09T10:10:59.419Z,102817.94
2024-05-09T10:13:33.877Z,102813.88
2024-05-09T10:16:07.830Z,102815.50
2024-05-09T10:18:38.736Z,102811.78
2024-05-09T10:21:19.722Z,102804.28
2024-05-09T10:24:00.517Z,102802.59
2024-05-09T10:26:34.866Z,102801.13
2024-05-09T10:29:13.754Z,102798.50
2024-05-09T10:31:45.691Z,102797.00
2024-05-09T10:34:23.429Z,102802.19
2024-05-09T10:36:56.749Z,102800.47
2024-05-09T10:39:25.215Z,102797.72
2024-05-09T10:41:51.873Z,102797.06
2024-05-09T10:44:18.709Z,102798.50
2024-05-09T10:46:46.322Z,102793.03
2024-05-09T10:49:14.738Z,102788.34
2024-05-09T10:51:45.323Z,102787.69
2024-05-09T10:54:11.985Z,102784.31
2024-05-09T10:56:38.586Z,102779.72
2024-05-09T10:59:05.643Z,102781.81
2024-05-09T11:01:32.390Z,102772.69
2024-05-09T11:03:59.266Z,102771.34
2024-05-09T11:06:25.996Z,102761.63
2024-05-09T11:08:52.898Z,102771.81
2024-05-09T11:11:19.727Z,102768.09
2024-05-09T11:13:46.382Z,102773.47
2024-05-09T11:16:21.194Z,102772.63
2024-05-09T11:18:58.943Z,102770.56
2024-05-09T11:21:26.893Z,102763.75
2024-05-09T11:23:53.724Z,102755.47
2024-05-09T11:26:22.098Z,102760.38
2024-05-09T11:28:50.548Z,102753.78
2024-05-09T11:31:17.757Z,102744.09
2024-05-09T11:33:47.753Z,102755.25
2024-05-09T11:36:15.076Z,102748.09
2024-05-09T11:38:42.417Z,102747.06
2024-05-09T11:41:09.101Z,102750.66
2024-05-09T11:43:35.743Z,102744.59
2024-05-09T11:46:03.558Z,102746.28
2024-05-09T11:48:31.174Z,102736.41
2024-05-09T11:50:58.863Z,102745.84
2024-05-09T11:53:26.250Z,102735.91
2024-05-09T11:55:53.945Z,102745.94
2024-05-09T11:58:22.906Z,102732.47
2024-05-09T12:00:52.247Z,102738.97
2024-05-09T12:03:19.549Z,102728.31
2024-05-09T12:05:46.766Z,102733.69
2024-05-09T12:08:14.210Z,102729.06
2024-05-09T12:13:22.328Z,102730.00
2024-05-09T12:15:52.271Z,102724.91
2024-05-09T12:18:19.739Z,102729.34
2024-05-09T12:20:47.579Z,102728.41
2024-05-09T12:23:17.310Z,102722.91
2024-05-09T12:25:44.807Z,102725.63
2024-05-09T12:28:11.534Z,102725.31
2024-05-09T12:30:42.244Z,102720.16
2024-05-09T12:33:13.839Z,102719.13
2024-05-09T12:35:47.441Z,102717.31
2024-05-09T12:38:19.229Z,102716.53
2024-05-09T12:40:56.513Z,102707.88
2024-05-09T12:43:23.542Z,102705.13
2024-05-09T12:45:53.559Z,102708.53
2024-05-09T12:48:24.182Z,102704.03
2024-05-09T12:50:53.246Z,102704.53
2024-05-09T12:53:20.763Z,102701.69
2024-05-09T12:55:56.699Z,102702.13
2024-05-09T12:58:27.170Z,102700.31
2024-05-09T13:00:56.549Z,102698.28
2024-05-09T13:03:23.388Z,102691.09
2024-05-09T13:05:51.801Z,102695.13
2024-05-09T13:08:19.593Z,102691.53
2024-05-09T13:10:49.471Z,102685.47
2024-05-09T13:13:16.910Z,102692.59
2024-05-09T13:15:45.854Z,102687.09
2024-05-09T13:18:14.366Z,102685.09
2024-05-09T13:20:45.563Z,102692.19
2024-05-09T13:23:12.914Z,102689.34
2024-05-09T13:25:39.650Z,102684.69
2024-05-09T13:28:07.586Z,102680.53
2024-05-09T13:30:40.552Z,102691.41
2024-05-09T13:33:10.646Z,102691.00
2024-05-09T13:35:39.503Z,102685.19
2024-05-09T13:38:07.075Z,102686.97
2024-05-09T13:40:36.337Z,102682.44
2024-05-09T13:43:04.996Z,102686.25
2024-05-09T13:45:33.236Z,102689.59
2024-05-09T13:48:01.080Z,102691.56
2024-05-09T13:50:34.740Z,102685.91
2024-05-09T13:53:08.722Z,102684.41
2024-05-09T13:56:02.547Z,102690.22
2024-05-09T13:58:29.290Z,102692.28
2024-05-09T14:00:57.368Z,102675.56
2024-05-09T14:03:25.472Z,102677.47
2024-05-09T14:05:55.413Z,102681.16
2024-05-09T14:08:23.036Z,102673.03
2024-05-09T14:10:54.673Z,102678.97
2024-05-09T14:13:21.552Z,102670.59
2024-05-09T14:15:51.490Z,102666.16
2024-05-09T14:18:19.056Z,102670.09
2024-05-09T14:20:46.058Z,102669.91
2024-05-09T14:23:12.655Z,102672.34
2024-05-09T14:25:42.552Z,102664.41
2024-05-09T14:28:10.703Z,102658.47
2024-05-09T14:30:41.361Z,102662.28
2024-05-09T14:33:09.253Z,102660.56
2024-05-09T14:35:39.410Z,102661.00
2024-05-09T14:38:08.920Z,102655.50
2024-05-09T14:40:42.881Z,102653.22
2024-05-09T14:43:12.861Z,102649.50
2024-05-09T14:45:45.043Z,102649.13
2024-05-09T14:48:15.574Z,102648.72
2024-05-09T14:50:46.519Z,102649.59
2024-05-09T14:53:13.881Z,102641.13
2024-05-09T14:55:44.365Z,102641.28
2024-05-09T14:58:12.198Z,102633.56
2024-05-09T15:00:47.774Z,102623.25
2024-05-09T15:03:18.408Z,102628.09
2024-05-09T15:05:50.317Z,102625.47
2024-05-09T15:08:18.626Z,102626.44
2024-05-09T15:10:46.813Z,102621.84
2024-05-09T15:13:16.406Z,102603.50
2024-05-09T15:15:46.765Z,102615.31
2024-05-09T15:18:14.915Z,102604.84
2024-05-09T15:20:45.795Z,102614.25
2024-05-09T15:23:13.415Z,102608.19
2024-05-09T15:25:42.706Z,102601.47
2024-05-09T15:28:09.673Z,102602.75
2024-05-09T15:30:39.597Z,102600.81
2024-05-09T15:33:07.966Z,102597.47
2024-05-09T15:35:37.949Z,102598.78
2024-05-09T15:38:05.072Z,102600.38
2024-05-09T15:40:39.306Z,102590.53
2024-05-09T15:43:09.348Z,102585.03
2024-05-09T15:45:38.818Z,102590.22
2024-05-09T15:48:08.616Z,102587.03
2024-05-09T15:50:40.145Z,102588.75
2024-05-09T15:53:10.307Z,102581.63
2024-05-09T15:55:38.451Z,102580.38
2024-05-09T15:58:06.168Z,102576.53
2024-05-09T16:00:39.136Z,102569.22
2024-05-09T16:03:14.619Z,102578.00
2024-05-09T16:05:46.746Z,102571.50
2024-05-09T16:08:15.256Z,102568.75
2024-05-09T16:10:45.855Z,102566.47
2024-05-09T16:13:13.571Z,102568.56
2024-05-09T16:15:41.216Z,102567.50
2024-05-09T16:18:08.233Z,102569.31
2024-05-09T16:20:40.745Z,102560.41
2024-05-09T16:23:09.574Z,102559.78
2024-05-09T16:25:40.132Z,102560.41
2024-05-09T16:28:10.016Z,102554.47
2024-05-09T16:30:43.571Z,102561.88
2024-05-09T16:33:13.337Z,102551.91
2024-05-09T16:35:44.651Z,102553.50
2024-05-09T16:38:11.364Z,102548.97
2024-05-09T16:40:41.420Z,102554.88
2024-05-09T16:43:10.086Z,102545.13
2024-05-09T16:45:44.849Z,102544.50
2024-05-09T16:48:13.034Z,102538.16
2024-05-09T16:50:40.271Z,102533.34
2024-05-09T16:53:07.459Z,102536.00
2024-05-09T16:55:36.936Z,102540.69
2024-05-09T16:58:07.073Z,102540.09
2024-05-09T17:00:40.803Z,102548.16
2024-05-09T17:03:12.643Z,102542.47
2024-05-09T17:05:40.636Z,102545.31
2024-05-09T17:08:08.601Z,102549.56
2024-05-09T17:10:37.064Z,102550.19
2024-05-09T17:13:06.475Z,102541.38
2024-05-09T17:15:35.180Z,102540.19
2024-05-09T17:18:02.906Z,102542.00
2024-05-09T17:20:35.374Z,102541.66
2024-05-09T17:23:06.046Z,102543.97
2024-05-09T17:25:34.283Z,102541.09
2024-05-09T17:28:06.820Z,102538.81
2024-05-09T17:30:38.256Z,102539.22
2024-05-09T17:33:08.972Z,102542.44
2024-05-09T17:35:38.162Z,102536.09
2024-05-09T17:38:06.322Z,102539.56
2024-05-09T17:40:37.454Z,102539.69
2024-05-09T17:43:08.471Z,102539.81
2024-05-09T17:45:40.547Z,102537.03
2024-05-09T17:48:10.377Z,102529.00
2024-05-09T17:50:38.751Z,102528.78
2024-05-09T17:53:06.553Z,102525.19
2024-05-09T17:55:35.238Z,102528.16
2024-05-09T17:58:04.834Z,102533.09
2024-05-09T18:00:40.738Z,102526.50
2024-05-09T18:03:13.749Z,102535.66
2024-05-09T18:05:45.031Z,102532.31
2024-05-09T18:08:13.942Z,102534.25
2024-05-09T18:10:42.975Z,102542.69
2024-05-09T18:13:11.426Z,102540.72
2024-05-09T18:15:39.648Z,102535.06
2024-05-09T18:18:07.674Z,102546.97
2024-05-09T18:20:42.142Z,102543.03
2024-05-09T18:23:13.374Z,102540.88
2024-05-09T18:25:46.293Z,102537.56
2024-05-09T18:28:13.750Z,102538.66
2024-05-09T18:30:41.675Z,102536.13
2024-05-09T18:33:10.178Z,102535.34
2024-05-09T18:35:38.357Z,102538.09
2024-05-09T18:38:05.465Z,102533.84
2024-05-09T18:40:36.640Z,102534.16
2024-05-09T18:43:08.041Z,102528.09
2024-05-09T18:45:38.931Z,102534.34
2024-05-09T18:48:07.518Z,102538.13
2024-05-09T18:50:39.977Z,102538.31
2024-05-09T18:53:12.709Z,102539.50
2024-05-09T18:55:42.450Z,102544.97
2024-05-09T18:58:09.845Z,102544.31
2024-05-09T19:00:40.428Z,102551.56
2024-05-09T19:03:12.271Z,102550.91
2024-05-09T19:05:41.692Z,102542.31
2024-05-09T19:08:09.624Z,102541.75
2024-05-09T19:10:39.874Z,102536.56
2024-05-09T19:13:11.807Z,102544.00
2024-05-09T19:15:44.079Z,102545.88
2024-05-09T19:18:12.886Z,102540.88
2024-05-09T19:20:40.362Z,102550.59
2024-05-09T19:23:07.555Z,102554.34
2024-05-09T19:25:37.837Z,102552.81
2024-05-09T19:28:05.613Z,102549.59
2024-05-09T19:30:39.405Z,102548.16
2024-05-09T19:33:10.181Z,102552.09
2024-05-09T19:35:37.857Z,102551.41
2024-05-09T19:38:05.227Z,102553.38
2024-05-09T19:40:33.926Z,102553.59
2024-05-09T19:43:02.858Z,102552.03
2024-05-09T19:45:30.284Z,102554.06
2024-05-09T19:47:57.272Z,102552.44
2024-05-09T19:50:32.378Z,102546.50
2024-05-09T19:53:06.903Z,102549.50
2024-05-09T19:55:33.884Z,102551.53
2024-05-09T19:58:04.885Z,102552.88
2024-05-09T20:00:39.015Z,102559.38
2024-05-09T20:03:08.503Z,102548.31
2024-05-09T20:05:36.294Z,102556.56
2024-05-09T20:08:03.836Z,102555.28
2024-05-09T20:10:33.246Z,102558.44
2024-05-09T20:13:02.628Z,102552.19
2024-05-09T20:15:29.642Z,102559.50
2024-05-09T20:17:56.439Z,102560.50
2024-05-09T20:20:33.402Z,102553.69
2024-05-09T20:23:06.195Z,102558.31
2024-05-09T20:25:33.221Z,102557.63
2024-05-09T20:27:59.995Z,102558.72
2024-05-09T20:30:32.001Z,102563.38
2024-05-09T20:33:02.830Z,102568.88
2024-05-09T20:35:31.872Z,102569.97
2024-05-09T20:37:58.927Z,102567.50
2024-05-09T20:40:31.655Z,102569.59
2024-05-09T20:43:02.173Z,102571.75
2024-05-09T20:45:28.884Z,102573.94
2024-05-09T20:47:56.032Z,102570.00
2024-05-09T20:50:29.274Z,102575.63
2024-05-09T20:53:05.193Z,102580.28
2024-05-09T20:55:31.796Z,102571.84
2024-05-09T20:57:58.637Z,102579.94
2024-05-09T21:00:34.613Z,102579.34
2024-05-09T21:03:07.111Z,102573.44
2024-05-09T21:05:34.772Z,102568.44
2024-05-09T21:08:01.899Z,102567.72
2024-05-09T21:10:32.735Z,102570.53
2024-05-09T21:13:00.784Z,102568.97
2024-05-09T21:15:27.460Z,102580.63
2024-05-09T21:17:54.104Z,102577.44
2024-05-09T21:20:28.103Z,102577.66
2024-05-09T21:22:57.739Z,102572.50
2024-05-09T21:25:24.487Z,102570.84
2024-05-09T21:27:51.391Z,102571.09
2024-05-09T21:30:27.308Z,102573.84
2024-05-09T21:32:59.987Z,102572.28
2024-05-09T21:35:26.780Z,102573.34
2024-05-09T21:37:53.439Z,102571.78
2024-05-09T21:40:27.308Z,102567.53
2024-05-09T21:43:00.760Z,102568.50
2024-05-09T21:45:33.252Z,102570.44
2024-05-09T21:48:00.296Z,102567.94
2024-05-09T21:50:36.059Z,102577.69
2024-05-09T21:53:07.021Z,102565.53
2024-05-09T21:55:34.123Z,102568.31
2024-05-09T21:58:02.913Z,102573.56
2024-05-09T22:00:36.059Z,102566.75
2024-05-09T22:03:09.715Z,102571.16
2024-05-09T22:05:38.244Z,102566.88
2024-05-09T22:08:05.603Z,102566.09
2024-05-09T22:10:35.034Z,102574.84
2024-05-09T22:13:05.090Z,102569.03
2024-05-09T22:15:36.257Z,102563.91
2024-05-09T22:18:04.526Z,102565.72
2024-05-09T22:20:37.001Z,102567.56
2024-05-09T22:23:05.846Z,102569.47
2024-05-09T22:25:32.994Z,102570.41
2024-05-09T22:28:01.158Z,102566.97
2024-05-09T22:30:35.620Z,102568.00
2024-05-09T22:33:06.594Z,102568.13
2024-05-09T22:35:33.543Z,102563.06
2024-05-09T22:38:00.266Z,102569.44
2024-05-09T22:40:38.379Z,102565.28
2024-05-09T22:43:13.592Z,102566.34
2024-05-09T22:45:41.280Z,102567.41
2024-05-09T22:48:08.886Z,102571.03
2024-05-09T22:50:35.794Z,102566.84
2024-05-09T22:53:02.534Z,102571.38
2024-05-09T22:55:29.263Z,102571.50
2024-05-09T22:57:56.197Z,102569.88
2024-05-09T23:00:30.976Z,102571.75
2024-05-09T23:03:00.739Z,102570.16
2024-05-09T23:05:27.805Z,102563.31
2024-05-09T23:07:54.548Z,102572.09
2024-05-09T23:10:28.163Z,102572.22
2024-05-09T23:13:01.435Z,102572.31
2024-05-09T23:15:28.388Z,102578.50
2024-05-09T23:17:55.451Z,102566.47
2024-05-09T23:20:32.739Z,102569.25
2024-05-09T23:23:04.266Z,102572.00
2024-05-09T23:25:30.902Z,102562.63
2024-05-09T23:27:57.562Z,102565.50
2024-05-09T23:30:33.568Z,102570.88
2024-05-09T23:33:05.587Z,102571.06
2024-05-09T23:35:32.430Z,102565.88
2024-05-09T23:37:59.861Z,102562.47
2024-05-09T23:40:37.120Z,102561.69
2024-05-09T23:43:07.702Z,102554.88
2024-05-09T23:45:34.906Z,102558.53
2024-05-09T23:48:01.905Z,102555.22
2024-05-09T23:50:35.789Z,102557.09
2024-05-09T23:53:05.809Z,102549.50
2024-05-09T23:55:32.973Z,102559.22
2024-05-09T23:58:00.135Z,102557.69
